Time;durP1;ratioP1;P1;durP2;ratioP2;P2;SDS_P1;SDS_P2;PMS_P1;PMS_P2;Temp;Humidity;BMP_temperature;BMP_pressure;BME280_temperature;BME280_humidity;BME280_pressure;Samples;Min_cycle;Max_cycle;Signal;HPM_P1;HPM_P2
2021/06/05 00:01:54;;;;;;;7.87;3.40;;;;;;;13.58;62.53;100454.83;1756917;80;20995;-76
2021/06/05 00:04:22;;;;;;;5.97;2.90;;;;;;;13.55;62.32;100453.78;1770925;80;20980;-75
2021/06/05 00:06:49;;;;;;;5.42;2.90;;;;;;;13.50;62.49;100456.00;1771142;80;21802;-75
2021/06/05 00:09:17;;;;;;;6.00;2.85;;;;;;;13.49;62.46;100453.00;1763906;79;21405;-75
2021/06/05 00:11:45;;;;;;;9.35;2.92;;;;;;;13.46;62.11;100454.97;1764742;80;20968;-76
2021/06/05 00:14:12;;;;;;;7.42;3.20;;;;;;;13.46;61.80;100449.66;1738012;80;21009;-76
2021/06/05 00:16:42;;;;;;;9.78;3.37;;;;;;;13.49;61.56;100451.19;1777821;79;21057;-76
2021/06/05 00:19:13;;;;;;;5.53;3.00;;;;;;;13.52;61.35;100449.60;1761086;80;21811;-76
2021/06/05 00:21:40;;;;;;;5.87;3.35;;;;;;;13.56;61.46;100448.34;1737873;79;21087;-75
2021/06/05 00:24:08;;;;;;;9.98;2.98;;;;;;;13.55;61.71;100445.34;1770854;80;21023;-75
2021/06/05 00:26:35;;;;;;;8.05;3.00;;;;;;;13.53;61.74;100444.64;1759947;80;20996;-75
2021/06/05 00:29:02;;;;;;;9.75;3.52;;;;;;;13.53;62.41;100440.66;1763274;80;21055;-75
2021/06/05 00:31:29;;;;;;;9.15;3.30;;;;;;;13.47;62.32;100434.57;1741160;80;22429;-75
2021/06/05 00:33:57;;;;;;;6.22;3.30;;;;;;;13.43;62.90;100434.02;1740108;80;21421;-75
2021/06/05 00:36:23;;;;;;;7.92;3.20;;;;;;;13.38;62.50;100440.22;1735195;80;21399;-75
2021/06/05 00:38:53;;;;;;;8.55;3.08;;;;;;;13.40;62.23;100432.11;1757255;80;21040;-76
2021/06/05 00:41:22;;;;;;;6.83;3.05;;;;;;;13.39;62.69;100432.61;1728401;82;21557;-77
2021/06/05 00:43:51;;;;;;;8.38;3.22;;;;;;;13.35;62.71;100430.38;1753014;79;21901;-77
2021/06/05 00:46:20;;;;;;;8.60;3.00;;;;;;;13.33;61.99;100432.34;1744972;80;21580;-77
2021/06/05 00:48:47;;;;;;;8.63;3.47;;;;;;;13.37;61.91;100430.59;1768766;79;21043;-77
2021/06/05 00:51:14;;;;;;;11.88;3.52;;;;;;;13.36;62.19;100429.41;1719330;81;21044;-76
2021/06/05 00:53:44;;;;;;;12.20;3.35;;;;;;;13.36;62.05;100433.38;1753999;79;20961;-76
2021/06/05 00:56:13;;;;;;;7.87;3.50;;;;;;;13.32;62.11;100432.83;1750816;79;21730;-77
2021/06/05 00:58:40;;;;;;;7.90;3.52;;;;;;;13.34;61.93;100432.20;1714919;82;21048;-78
2021/06/05 01:01:17;;;;;;;7.08;3.40;;;;;;;13.37;61.86;100433.73;1714767;81;21393;-77
2021/06/05 01:03:45;;;;;;;10.03;3.87;;;;;;;13.32;62.11;100425.36;1751360;80;21015;-77
2021/06/05 01:06:17;;;;;;;7.62;3.67;;;;;;;13.26;62.24;100424.09;1737840;79;20956;-76
2021/06/05 01:09:04;;;;;;;8.05;3.80;;;;;;;13.26;62.44;100428.55;1728290;80;21816;-77
2021/06/05 01:11:55;;;;;;;12.93;3.47;;;;;;;13.23;62.53;100423.05;1737927;81;21423;-77
2021/06/05 01:14:36;;;;;;;8.73;3.50;;;;;;;13.20;62.70;100421.13;1710692;81;21052;-77
2021/06/05 01:17:07;;;;;;;13.72;3.37;;;;;;;13.12;62.69;100430.61;1731867;82;21071;-77
2021/06/05 01:19:55;;;;;;;4.72;2.80;;;;;;;13.08;62.94;100429.67;1735533;80;20922;-77
2021/06/05 01:23:11;;;;;;;7.47;3.55;;;;;;;13.04;63.13;100434.42;1737263;82;21899;-76
2021/06/05 01:26:15;;;;;;;8.08;3.60;;;;;;;13.02;62.99;100433.69;1756201;79;20913;-77
2021/06/05 01:28:57;;;;;;;6.83;3.65;;;;;;;13.00;63.36;100433.48;1756970;80;20976;-77
2021/06/05 01:31:29;;;;;;;8.10;3.80;;;;;;;12.88;63.61;100433.60;1761552;80;21091;-77
2021/06/05 01:33:57;;;;;;;7.83;4.00;;;;;;;12.84;63.68;100435.34;1761527;79;20999;-76
2021/06/05 01:36:25;;;;;;;9.25;3.65;;;;;;;12.83;63.63;100433.64;1746341;80;21773;-77
2021/06/05 01:39:00;;;;;;;10.43;3.70;;;;;;;12.83;64.09;100432.31;1765034;79;21380;-77
2021/06/05 01:41:27;;;;;;;8.68;3.58;;;;;;;12.76;63.96;100429.87;1763944;78;21169;-76
2021/06/05 01:43:56;;;;;;;7.70;3.33;;;;;;;12.76;64.37;100433.36;1713097;81;21103;-76
2021/06/05 01:46:28;;;;;;;8.88;3.70;;;;;;;12.71;64.46;100430.26;1748582;80;21004;-76
2021/06/05 01:48:56;;;;;;;6.17;3.55;;;;;;;12.67;64.70;100433.33;1747095;80;22342;-77
2021/06/05 01:51:24;;;;;;;8.33;3.77;;;;;;;12.62;64.92;100429.73;1699383;80;21011;-77
2021/06/05 01:53:58;;;;;;;11.12;3.95;;;;;;;12.59;65.15;100434.82;1721334;80;21426;-76
2021/06/05 01:56:59;;;;;;;10.15;3.67;;;;;;;12.55;65.35;100428.13;1745953;79;21091;-76
2021/06/05 01:59:31;;;;;;;8.50;3.40;;;;;;;12.56;65.44;100425.83;1737172;80;21478;-76
2021/06/05 02:02:00;;;;;;;8.85;3.70;;;;;;;12.52;65.82;100432.83;1730515;80;21834;-76
2021/06/05 02:04:27;;;;;;;6.30;3.55;;;;;;;12.49;65.95;100432.63;1775474;79;21074;-75
2021/06/05 02:06:55;;;;;;;9.38;3.45;;;;;;;12.48;66.06;100430.94;1751130;80;21020;-77
2021/06/05 02:09:24;;;;;;;5.83;3.42;;;;;;;12.49;66.38;100433.11;1762807;79;20945;-76
2021/06/05 02:12:03;;;;;;;8.38;3.77;;;;;;;12.48;66.61;100437.56;1738741;81;21007;-77
2021/06/05 02:14:36;;;;;;;8.90;3.58;;;;;;;12.47;66.80;100433.25;1717855;81;22451;-76
2021/06/05 02:17:07;;;;;;;10.72;3.58;;;;;;;12.52;66.59;100435.48;1700169;82;21024;-76
2021/06/05 02:19:40;;;;;;;9.10;3.67;;;;;;;12.59;66.58;100429.52;1757249;80;20944;-76
2021/06/05 02:22:25;;;;;;;8.80;3.83;;;;;;;12.64;66.57;100430.44;1758836;80;20932;-77
2021/06/05 02:24:56;;;;;;;10.48;3.85;;;;;;;12.72;66.37;100427.95;1745879;79;21013;-78
2021/06/05 02:27:26;;;;;;;9.18;3.92;;;;;;;12.79;66.34;100431.76;1781181;77;21809;-77
2021/06/05 02:29:53;;;;;;;8.00;4.12;;;;;;;12.86;66.07;100425.44;1791791;79;20972;-77
2021/06/05 02:32:24;;;;;;;9.13;3.47;;;;;;;12.94;65.95;100425.61;1801242;78;20993;-76
2021/06/05 02:34:54;;;;;;;9.80;4.08;;;;;;;13.01;65.84;100430.69;1742811;80;20999;-78
2021/06/05 02:37:24;;;;;;;7.47;4.05;;;;;;;13.06;66.00;100431.14;1755333;80;21134;-77
2021/06/05 02:39:57;;;;;;;9.45;4.03;;;;;;;13.10;65.81;100431.20;1749596;80;21816;-77
2021/06/05 02:42:24;;;;;;;7.33;3.80;;;;;;;13.13;65.98;100433.61;1735048;80;20987;-77
2021/06/05 02:44:54;;;;;;;13.58;4.00;;;;;;;13.14;66.17;100430.47;1764761;78;21012;-77
2021/06/05 02:47:22;;;;;;;8.43;4.37;;;;;;;13.16;66.18;100425.86;1748526;80;21067;-78
2021/06/05 02:49:49;;;;;;;8.65;4.00;;;;;;;13.21;65.92;100426.78;1745077;80;21031;-77
2021/06/05 02:52:34;;;;;;;9.73;4.25;;;;;;;13.27;65.79;100428.41;1712203;80;21864;-78
2021/06/05 02:55:14;;;;;;;10.05;3.95;;;;;;;13.32;65.76;100427.52;1722401;80;20977;-78
2021/06/05 02:57:42;;;;;;;7.65;3.70;;;;;;;13.37;65.46;100422.63;1738615;81;20976;-78
2021/06/05 03:00:12;;;;;;;7.97;3.58;;;;;;;13.44;65.04;100422.43;1728532;79;20999;-77
2021/06/05 03:02:39;;;;;;;14.28;4.10;;;;;;;13.52;64.86;100420.91;1756816;80;21063;-77
2021/06/05 03:05:08;;;;;;;14.60;3.87;;;;;;;13.55;64.64;100416.14;1751333;80;21764;-77
2021/06/05 03:07:35;;;;;;;14.25;4.60;;;;;;;13.61;64.61;100412.94;1752084;80;20983;-77
2021/06/05 03:10:05;;;;;;;8.55;4.05;;;;;;;13.66;64.56;100412.02;1762924;80;20971;-77
2021/06/05 03:12:33;;;;;;;12.45;4.20;;;;;;;13.72;64.46;100418.59;1736572;82;21035;-77
2021/06/05 03:15:00;;;;;;;7.58;4.00;;;;;;;13.77;64.37;100414.17;1737690;80;20949;-77
2021/06/05 03:17:28;;;;;;;8.60;4.12;;;;;;;13.79;64.39;100414.38;1741013;80;21820;-76
2021/06/05 03:19:57;;;;;;;11.45;3.87;;;;;;;13.83;64.26;100409.63;1710725;82;20956;-77
2021/06/05 03:22:24;;;;;;;7.75;3.80;;;;;;;13.86;64.47;100424.78;1742906;79;21040;-76
2021/06/05 03:24:52;;;;;;;7.90;3.85;;;;;;;13.92;64.55;100421.57;1746408;79;21456;-77
2021/06/05 03:27:20;;;;;;;8.98;3.90;;;;;;;13.99;64.41;100425.80;1707273;83;21388;-77
2021/06/05 03:29:48;;;;;;;8.05;3.87;;;;;;;14.05;64.22;100417.27;1737951;81;21802;-78
2021/06/05 03:32:14;;;;;;;9.35;3.87;;;;;;;14.11;64.24;100423.35;1706989;81;21110;-78
2021/06/05 03:34:41;;;;;;;6.53;3.77;;;;;;;14.17;64.24;100425.41;1768194;80;21055;-78
2021/06/05 03:37:09;;;;;;;10.03;4.00;;;;;;;14.23;64.13;100420.03;1763855;80;21467;-77
2021/06/05 03:39:37;;;;;;;12.78;4.30;;;;;;;14.26;64.08;100414.42;1765057;79;21016;-77
2021/06/05 03:42:08;;;;;;;7.72;3.75;;;;;;;14.31;63.99;100418.33;1764631;80;21783;-78
2021/06/05 03:44:35;;;;;;;8.33;3.45;;;;;;;14.38;64.03;100417.27;1734912;81;20897;-77
2021/06/05 03:47:03;;;;;;;10.35;3.80;;;;;;;14.47;64.01;100420.88;1715567;81;21033;-78
2021/06/05 03:49:33;;;;;;;7.65;3.85;;;;;;;14.53;63.77;100422.97;1713697;79;21090;-78
2021/06/05 03:52:03;;;;;;;11.22;3.92;;;;;;;14.60;63.67;100420.08;1759835;79;21111;-78
2021/06/05 03:54:30;;;;;;;8.58;4.10;;;;;;;14.66;63.72;100416.81;1771312;79;21798;-77
2021/06/05 03:56:58;;;;;;;8.10;3.65;;;;;;;14.71;63.47;100417.22;1773377;80;21324;-76
2021/06/05 03:59:25;;;;;;;6.37;3.85;;;;;;;14.75;63.36;100412.44;1716140;80;21400;-77
2021/06/05 04:01:52;;;;;;;6.87;3.35;;;;;;;14.77;63.25;100410.00;1719575;79;21012;-77
2021/06/05 04:04:20;;;;;;;6.58;3.42;;;;;;;14.85;63.29;100418.05;1759814;80;20997;-76
2021/06/05 04:06:46;;;;;;;11.25;3.80;;;;;;;14.94;63.30;100426.13;1770540;79;21796;-78
2021/06/05 04:09:13;;;;;;;7.62;4.00;;;;;;;14.98;62.98;100418.21;1771712;80;20952;-78
2021/06/05 04:11:41;;;;;;;7.00;4.15;;;;;;;15.00;62.84;100421.06;1762339;80;21001;-81
2021/06/05 04:14:10;;;;;;;7.85;3.83;;;;;;;15.04;62.82;100421.09;1759993;79;21980;-77
2021/06/05 04:16:37;;;;;;;8.60;3.55;;;;;;;15.08;62.73;100421.64;1737134;80;21117;-77
2021/06/05 04:19:04;;;;;;;6.67;4.22;;;;;;;15.13;62.81;100418.03;1745739;81;21799;-77
2021/06/05 04:21:31;;;;;;;7.42;3.65;;;;;;;15.16;62.85;100421.73;1714094;80;20998;-78
2021/06/05 04:23:58;;;;;;;8.95;3.77;;;;;;;15.23;62.88;100420.13;1739491;80;21006;-79
2021/06/05 04:26:24;;;;;;;7.80;3.60;;;;;;;15.30;62.85;100425.20;1755767;80;20980;-79
2021/06/05 04:28:51;;;;;;;7.03;3.75;;;;;;;15.39;62.78;100422.97;1750104;80;21574;-78
2021/06/05 04:31:19;;;;;;;7.15;3.40;;;;;;;15.50;62.30;100423.72;1764814;80;22654;-79
2021/06/05 04:33:45;;;;;;;9.23;3.85;;;;;;;15.57;62.04;100426.13;1741074;82;20909;-79
2021/06/05 04:36:14;;;;;;;8.38;3.90;;;;;;;15.66;61.93;100423.91;1686421;82;21045;-79
2021/06/05 04:38:42;;;;;;;8.00;4.03;;;;;;;15.77;61.84;100422.34;1754633;80;21012;-78
2021/06/05 04:41:11;;;;;;;8.28;3.70;;;;;;;15.87;61.79;100417.76;1755367;80;21019;-79
2021/06/05 04:43:38;;;;;;;9.08;4.30;;;;;;;16.00;61.33;100413.34;1758834;80;21831;-79
2021/06/05 04:46:06;;;;;;;7.40;4.15;;;;;;;16.06;60.77;100416.73;1746478;80;21205;-78
2021/06/05 04:48:33;;;;;;;7.03;3.92;;;;;;;16.09;60.69;100412.91;1758250;80;21027;-79
2021/06/05 04:50:59;;;;;;;5.62;3.60;;;;;;;16.12;60.39;100415.28;1772036;78;22436;-78
2021/06/05 04:53:26;;;;;;;7.90;3.40;;;;;;;16.17;60.01;100401.81;1758985;80;20829;-78
2021/06/05 04:55:52;;;;;;;8.58;3.83;;;;;;;16.26;59.35;100404.86;1760530;80;22413;-77
2021/06/05 04:58:19;;;;;;;7.83;3.20;;;;;;;16.35;58.68;100400.42;1765731;80;20953;-78
2021/06/05 05:00:47;;;;;;;6.97;3.10;;;;;;;16.45;58.40;100405.63;1713432;82;20976;-78
2021/06/05 05:03:16;;;;;;;6.37;2.70;;;;;;;16.55;58.40;100406.34;1711653;81;21003;-78
2021/06/05 05:05:44;;;;;;;10.63;2.80;;;;;;;16.67;57.89;100400.23;1721255;81;21534;-78
2021/06/05 05:08:13;;;;;;;6.45;2.42;;;;;;;16.74;57.10;100402.13;1764469;79;22794;-78
2021/06/05 05:10:45;;;;;;;6.33;2.42;;;;;;;16.81;56.72;100399.16;1766975;79;21248;-79
2021/06/05 05:13:13;;;;;;;8.83;2.90;;;;;;;16.90;56.72;100399.20;1753544;79;21020;-79
2021/06/05 05:15:41;;;;;;;6.30;3.58;;;;;;;16.96;56.41;100397.20;1761956;80;20948;-78
2021/06/05 05:18:07;;;;;;;6.03;2.70;;;;;;;16.95;55.75;100393.69;1747275;79;21012;-78
2021/06/05 05:20:38;;;;;;;5.62;2.67;;;;;;;16.96;55.80;100397.20;1759117;80;20944;-77
2021/06/05 05:23:05;;;;;;;7.80;2.52;;;;;;;17.01;55.74;100392.22;1738412;79;20960;-77
2021/06/05 05:25:33;;;;;;;6.12;2.67;;;;;;;17.09;55.96;100391.75;1741580;80;21028;-79
2021/06/05 05:28:01;;;;;;;6.03;2.67;;;;;;;17.18;55.12;100385.92;1756905;80;21632;-81
2021/06/05 05:30:31;;;;;;;4.87;2.30;;;;;;;17.29;55.03;100387.44;1747204;79;21079;-79
2021/06/05 05:32:58;;;;;;;6.80;2.30;;;;;;;17.44;55.69;100386.61;1744518;80;21916;-79
2021/06/05 05:35:27;;;;;;;7.08;2.15;;;;;;;17.63;54.02;100390.78;1757283;79;20981;-79
2021/06/05 05:37:54;;;;;;;8.30;2.50;;;;;;;17.79;53.87;100382.48;1761047;79;20937;-78
2021/06/05 05:40:22;;;;;;;6.12;2.17;;;;;;;17.91;53.17;100372.60;1736242;79;21099;-78
2021/06/05 05:42:49;;;;;;;4.75;1.90;;;;;;;18.04;53.02;100372.07;1744309;79;20972;-77
2021/06/05 05:45:16;;;;;;;4.22;2.10;;;;;;;18.16;51.07;100368.56;1761763;80;21796;-79
2021/06/05 05:47:43;;;;;;;3.98;2.00;;;;;;;18.22;50.48;100368.69;1746728;80;21005;-88
2021/06/05 05:50:12;;;;;;;4.47;2.20;;;;;;;18.28;49.93;100369.35;1757712;80;21147;-85
2021/06/05 05:52:39;;;;;;;3.37;1.67;;;;;;;18.35;50.12;100363.33;1686655;83;21542;-88
2021/06/05 05:55:08;;;;;;;3.60;1.80;;;;;;;18.43;49.64;100356.11;1746033;79;20960;-82
2021/06/05 05:57:34;;;;;;;3.20;1.90;;;;;;;18.51;48.36;100360.58;1759254;78;21795;-81
2021/06/05 06:00:06;;;;;;;8.20;2.12;;;;;;;18.55;49.10;100357.90;1754661;80;21011;-81
2021/06/05 06:02:34;;;;;;;5.10;2.27;;;;;;;18.62;48.65;100354.00;1756181;80;21019;-74
2021/06/05 06:05:01;;;;;;;5.08;1.67;;;;;;;18.70;48.19;100358.02;1758784;80;21480;-73
2021/06/05 06:07:28;;;;;;;7.55;2.08;;;;;;;18.77;47.67;100355.81;1759747;79;21431;-73
2021/06/05 06:09:55;;;;;;;6.70;1.90;;;;;;;18.86;47.70;100348.58;1754420;80;21759;-74
2021/06/05 06:12:22;;;;;;;4.37;1.82;;;;;;;18.95;47.29;100350.70;1755193;80;21050;-76
2021/06/05 06:14:49;;;;;;;5.70;1.95;;;;;;;19.07;46.47;100350.61;1759291;80;21023;-77
2021/06/05 06:17:15;;;;;;;3.75;2.05;;;;;;;19.16;46.20;100346.37;1760323;78;20984;-82
2021/06/05 06:19:42;;;;;;;6.70;1.82;;;;;;;19.22;45.71;100346.68;1753172;79;21125;-78
2021/06/05 06:22:09;;;;;;;5.22;1.80;;;;;;;19.23;45.21;100340.31;1759038;79;22211;-78
2021/06/05 06:24:36;;;;;;;3.15;1.87;;;;;;;19.27;46.37;100350.47;1749513;79;21499;-81
2021/06/05 06:27:05;;;;;;;4.30;1.60;;;;;;;19.32;45.46;100349.95;1752832;79;21451;-78
2021/06/05 06:29:33;;;;;;;3.67;1.80;;;;;;;19.32;45.61;100341.41;1752793;80;21516;-83
2021/06/05 06:31:59;;;;;;;4.58;1.62;;;;;;;19.43;44.62;100342.83;1733155;82;20972;-78
2021/06/05 06:34:26;;;;;;;9.80;1.80;;;;;;;19.48;44.71;100338.25;1754571;79;22246;-77
2021/06/05 06:36:59;;;;;;;5.55;1.80;;;;;;;19.57;45.76;100334.52;1731242;82;21016;-81
2021/06/05 06:39:26;;;;;;;4.80;1.52;;;;;;;19.70;44.40;100328.89;1701475;82;21662;-78
2021/06/05 06:41:54;;;;;;;4.75;1.85;;;;;;;19.82;44.15;100323.91;1729807;82;21059;-83
2021/06/05 06:44:20;;;;;;;2.37;1.47;;;;;;;19.94;43.66;100324.29;1746316;80;21035;-78
2021/06/05 06:46:48;;;;;;;7.10;2.00;;;;;;;19.99;44.20;100325.92;1776941;80;21803;-75
2021/06/05 06:49:17;;;;;;;4.35;1.70;;;;;;;19.99;43.62;100317.88;1757703;79;21014;-79
2021/06/05 06:51:43;;;;;;;4.67;1.87;;;;;;;19.98;44.30;100324.27;1736351;80;21016;-79
2021/06/05 06:54:11;;;;;;;3.52;1.90;;;;;;;20.00;44.05;100323.05;1754755;80;21015;-82
2021/06/05 06:56:37;;;;;;;4.60;1.60;;;;;;;20.05;44.46;100317.12;1757379;78;20925;-83
2021/06/05 06:59:06;;;;;;;7.40;2.00;;;;;;;20.10;44.88;100316.08;1744843;80;21885;-78
2021/06/05 07:01:32;;;;;;;3.65;1.62;;;;;;;20.18;45.37;100319.18;1707939;81;20997;-82
2021/06/05 07:03:58;;;;;;;4.45;1.72;;;;;;;20.22;44.13;100323.97;1729451;81;21035;-80
2021/06/05 07:06:25;;;;;;;5.12;2.02;;;;;;;20.16;44.12;100327.39;1710975;82;21004;-81
2021/06/05 07:08:53;;;;;;;2.52;1.60;;;;;;;20.08;44.24;100325.33;1761077;80;21632;-75
2021/06/05 07:11:27;;;;;;;6.53;1.92;;;;;;;20.10;43.99;100324.63;1769107;79;21847;-76
2021/06/05 07:13:53;;;;;;;3.05;1.70;;;;;;;20.07;44.59;100320.95;1755403;79;21050;-81
2021/06/05 07:16:20;;;;;;;4.05;1.90;;;;;;;20.12;44.30;100330.63;1761850;79;21082;-80
2021/06/05 07:18:48;;;;;;;4.35;1.60;;;;;;;20.19;43.91;100319.50;1745872;80;21098;-84
2021/06/05 07:21:15;;;;;;;3.85;1.50;;;;;;;20.26;44.29;100317.20;1734200;82;21027;-75
2021/06/05 07:23:43;;;;;;;2.70;1.52;;;;;;;20.37;43.43;100314.59;1766497;79;21701;-80
2021/06/05 07:26:14;;;;;;;1.82;1.52;;;;;;;20.40;42.75;100318.23;1746696;79;21004;-85
2021/06/05 07:28:45;;;;;;;6.70;1.90;;;;;;;20.37;43.59;100325.83;1770137;78;21138;-78
2021/06/05 07:31:14;;;;;;;3.60;1.77;;;;;;;20.30;43.99;100318.52;1722153;79;21016;-76
2021/06/05 07:33:43;;;;;;;6.10;1.70;;;;;;;20.28;43.51;100319.22;1749975;80;21048;-77
2021/06/05 07:36:14;;;;;;;4.62;1.70;;;;;;;20.26;43.76;100317.20;1759380;80;22493;-76
2021/06/05 07:38:40;;;;;;;4.08;1.80;;;;;;;20.29;44.40;100314.69;1742933;79;21456;-75
2021/06/05 07:41:07;;;;;;;3.90;1.72;;;;;;;20.39;44.32;100314.40;1761079;80;20977;-79
2021/06/05 07:43:35;;;;;;;4.25;1.98;;;;;;;20.48;44.21;100311.45;1761490;80;21500;-75
2021/06/05 07:46:03;;;;;;;6.67;1.82;;;;;;;20.48;43.13;100306.09;1762141;80;20977;-77
2021/06/05 07:48:31;;;;;;;5.47;1.82;;;;;;;20.40;43.34;100299.45;1750134;80;21699;-73
2021/06/05 07:50:58;;;;;;;7.35;2.00;;;;;;;20.43;43.13;100292.91;1752869;80;21122;-73
2021/06/05 07:53:25;;;;;;;3.40;1.77;;;;;;;20.43;43.59;100291.56;1745216;79;21012;-76
2021/06/05 07:55:53;;;;;;;5.50;1.80;;;;;;;20.50;44.37;100297.84;1767975;80;21585;-75
2021/06/05 07:58:20;;;;;;;4.95;1.80;;;;;;;20.61;44.08;100290.65;1734304;81;20952;-75
2021/06/05 08:00:46;;;;;;;6.65;2.27;;;;;;;20.77;43.76;100292.28;1731463;82;21788;-80
2021/06/05 08:03:13;;;;;;;3.70;1.72;;;;;;;20.93;43.84;100292.53;1749363;80;21052;-76
2021/06/05 08:05:40;;;;;;;7.40;1.90;;;;;;;21.07;43.61;100288.97;1771629;79;20932;-75
2021/06/05 08:08:09;;;;;;;5.55;1.80;;;;;;;21.17;42.45;100285.97;1756443;80;21630;-76
2021/06/05 08:10:39;;;;;;;4.35;1.80;;;;;;;21.14;42.57;100282.65;1768572;79;21024;-76
2021/06/05 08:13:06;;;;;;;5.42;2.00;;;;;;;21.20;42.03;100278.85;1768296;80;21832;-77
2021/06/05 08:15:35;;;;;;;4.08;1.95;;;;;;;21.20;41.26;100276.17;1764947;80;21016;-75
2021/06/05 08:18:03;;;;;;;3.87;1.90;;;;;;;21.21;42.73;100278.66;1761513;79;21403;-77
2021/06/05 08:20:40;;;;;;;7.97;2.27;;;;;;;21.38;43.78;100272.02;1761683;79;21341;-77
2021/06/05 08:23:10;;;;;;;4.25;1.70;;;;;;;21.56;42.49;100275.57;1730974;80;22497;-77
2021/06/05 08:25:36;;;;;;;2.67;1.60;;;;;;;21.71;42.10;100272.28;1764350;79;22476;-73
2021/06/05 08:28:04;;;;;;;5.12;1.98;;;;;;;21.84;40.66;100263.98;1763559;80;21114;-74
2021/06/05 08:30:38;;;;;;;6.28;1.90;;;;;;;21.81;41.15;100263.86;1739414;80;20970;-74
2021/06/05 08:33:06;;;;;;;;;;;;;;;21.70;40.18;100263.05;1755671;79;21149;-75
2021/06/05 08:35:34;;;;;;;5.78;2.22;;;;;;;21.65;41.51;100260.95;1742169;79;20285;-81
2021/06/05 08:38:03;;;;;;;2.40;1.72;;;;;;;21.70;40.84;100260.35;1762595;79;21796;-78
2021/06/05 08:40:45;;;;;;;3.10;1.75;;;;;;;21.71;40.45;100258.84;1739310;79;21169;-75
2021/06/05 08:43:14;;;;;;;5.83;1.65;;;;;;;21.64;40.89;100261.98;1766282;80;21020;-74
2021/06/05 08:45:41;;;;;;;5.40;1.90;;;;;;;21.57;41.07;100262.97;1737226;78;21015;-75
2021/06/05 08:48:13;;;;;;;3.72;1.70;;;;;;;21.58;40.96;100265.97;1735326;80;21404;-78
2021/06/05 08:50:40;;;;;;;4.12;1.37;;;;;;;21.61;39.63;100260.19;1749826;80;21460;-76
2021/06/05 08:53:18;;;;;;;7.00;1.60;;;;;;;21.69;40.33;100251.98;1772168;79;21031;-74
2021/06/05 08:55:58;;;;;;;6.40;1.67;;;;;;;21.87;40.01;100252.81;1770373;79;20976;-73
2021/06/05 08:58:32;;;;;;;3.35;1.60;;;;;;;;;;1765205;79;21159;-74
2021/06/05 09:01:04;;;;;;;9.40;1.82;;;;;;;22.38;37.36;100252.45;1756908;80;21487;-77
2021/06/05 09:03:34;;;;;;;6.05;1.50;;;;;;;22.44;37.37;100255.18;1738943;80;22724;-75
2021/06/05 09:06:09;;;;;;;7.05;1.80;;;;;;;22.63;37.99;100250.06;1759735;80;21490;-74
2021/06/05 09:08:36;;;;;;;3.10;1.32;;;;;;;22.90;37.28;100249.64;1772632;80;20922;-75
2021/06/05 09:11:04;;;;;;;5.47;1.70;;;;;;;23.17;37.52;100237.85;1739515;80;21020;-76
2021/06/05 09:13:32;;;;;;;2.92;1.37;;;;;;;23.42;36.32;100234.81;1771363;80;21016;-73
2021/06/05 09:16:24;;;;;;;5.33;1.60;;;;;;;23.47;35.25;100234.72;1707844;80;21538;-72
2021/06/05 09:19:17;;;;;;;4.80;1.75;;;;;;;23.46;35.62;100235.77;1766329;79;21503;-74
2021/06/05 09:21:49;;;;;;;3.15;1.70;;;;;;;23.39;36.57;100237.94;1774397;79;20976;-73
2021/06/05 09:24:33;;;;;;;4.47;1.60;;;;;;;23.30;36.48;100232.45;1763435;79;20976;-73
2021/06/05 09:27:24;;;;;;;;;;;;;;;23.00;37.29;100246.84;1748061;79;21083;-76
2021/06/05 09:30:03;;;;;;;5.47;2.17;;;;;;;22.78;39.08;100246.17;1732833;80;20251;-75
2021/06/05 09:32:40;;;;;;;2.40;1.57;;;;;;;22.97;38.09;100232.94;1736155;79;20900;-68
2021/06/05 09:35:14;;;;;;;4.28;1.80;;;;;;;23.24;37.91;100237.83;1751172;79;21059;-72
2021/06/05 09:37:47;;;;;;;6.05;2.00;;;;;;;23.45;36.83;100234.94;1747941;79;21077;-72
2021/06/05 09:40:27;;;;;;;3.35;1.70;;;;;;;23.48;36.53;100230.98;1757604;79;20987;-78
2021/06/05 09:42:59;;;;;;;3.72;1.72;;;;;;;23.33;36.11;100223.94;1758642;80;21814;-79
2021/06/05 09:45:34;;;;;;;5.37;1.70;;;;;;;23.06;37.25;100214.20;1774068;79;20928;-77
2021/06/05 09:48:35;;;;;;;3.75;1.20;;;;;;;22.87;37.60;100228.48;1742353;79;21096;-77
2021/06/05 09:51:07;;;;;;;6.62;1.70;;;;;;;22.75;38.16;100224.19;1726279;80;21387;-77
2021/06/05 09:53:37;;;;;;;3.67;1.80;;;;;;;22.76;38.30;100224.50;1749090;80;21020;-78
2021/06/05 09:56:15;;;;;;;3.77;1.50;;;;;;;22.89;37.59;100218.36;1756917;80;21659;-81
2021/06/05 09:58:45;;;;;;;3.50;1.65;;;;;;;22.94;38.00;100215.34;1762051;79;20988;-82
2021/06/05 10:01:16;;;;;;;3.25;1.45;;;;;;;22.93;37.31;100213.69;1776220;79;21410;-76
2021/06/05 10:03:43;;;;;;;4.53;1.70;;;;;;;22.84;37.37;100225.17;1752968;79;21056;-76
2021/06/05 10:06:32;;;;;;;4.17;1.60;;;;;;;22.83;37.00;100218.09;1750150;80;21024;-78
2021/06/05 10:08:58;;;;;;;3.17;1.77;;;;;;;22.98;37.88;100211.73;1763537;80;21811;-80
2021/06/05 10:11:36;;;;;;;2.58;1.40;;;;;;;23.18;36.90;100203.66;1733749;80;21502;-84
2021/06/05 10:14:09;;;;;;;8.58;1.90;;;;;;;23.35;37.89;100207.03;1773023;79;20968;-77
2021/06/05 10:16:41;;;;;;;5.12;1.70;;;;;;;23.54;36.28;100202.65;1749915;80;21217;-76
2021/06/05 10:19:31;;;;;;;4.03;1.55;;;;;;;23.74;37.96;100204.50;1729833;80;20940;-76
2021/06/05 10:21:58;;;;;;;4.80;1.35;;;;;;;23.93;35.09;100203.13;1769962;79;22526;-77
2021/06/05 10:24:38;;;;;;;4.47;2.50;;;;;;;23.99;35.06;100200.90;1774339;79;21087;-79
2021/06/05 10:27:11;;;;;;;4.55;2.00;;;;;;;24.05;35.25;100208.67;1764162;79;21003;-80
2021/06/05 10:29:49;;;;;;;7.42;2.52;;;;;;;24.23;35.09;100198.53;1764038;80;20941;-81
2021/06/05 10:32:27;;;;;;;3.95;1.70;;;;;;;24.50;35.20;100196.52;1748507;80;21151;-79
2021/06/05 10:35:31;;;;;;;3.87;1.45;;;;;;;24.86;33.41;100194.52;1757238;79;21825;-81
2021/06/05 10:38:15;;;;;;;2.42;1.15;;;;;;;24.84;32.01;100199.32;1766457;81;20941;-77
2021/06/05 10:40:43;;;;;;;3.62;1.45;;;;;;;24.44;33.20;100194.71;1758924;80;20972;-74
2021/06/05 10:43:15;;;;;;;3.20;1.70;;;;;;;24.47;34.38;100199.14;1742532;80;20996;-78
2021/06/05 10:45:40;;;;;;;4.62;1.40;;;;;;;24.60;33.75;100200.92;1750412;79;21047;-74
2021/06/05 10:48:32;;;;;;;7.05;1.82;;;;;;;24.64;32.48;100195.41;1720563;81;21836;-73
2021/06/05 10:51:19;;;;;;;6.65;1.55;;;;;;;24.56;33.02;100191.61;1737020;81;21003;-74
2021/06/05 10:54:06;;;;;;;3.40;1.30;;;;;;;24.52;33.18;100190.41;1765335;80;20991;-75
2021/06/05 10:56:44;;;;;;;5.12;1.75;;;;;;;24.29;33.22;100186.85;1770353;80;20981;-79
2021/06/05 10:59:41;;;;;;;5.40;1.95;;;;;;;24.10;33.49;100193.17;1751318;80;21008;-81
2021/06/05 11:02:09;;;;;;;4.95;1.72;;;;;;;23.85;33.42;100191.73;1755512;80;21481;-76
2021/06/05 11:04:43;;;;;;;4.22;1.52;;;;;;;23.70;34.52;100190.63;1731541;80;21047;-76
2021/06/05 11:07:26;;;;;;;4.30;1.57;;;;;;;23.80;34.56;100181.56;1753905;79;21070;-79
2021/06/05 11:09:55;;;;;;;5.35;1.40;;;;;;;23.93;34.89;100181.54;1767576;79;20968;-78
2021/06/05 11:12:33;;;;;;;6.60;1.30;;;;;;;23.95;34.50;100183.50;1767990;80;20948;-77
2021/06/05 11:15:03;;;;;;;2.62;1.42;;;;;;;24.02;35.32;100177.23;1764342;80;22654;-77
2021/06/05 11:17:38;;;;;;;5.37;1.72;;;;;;;24.26;34.96;100179.20;1768681;80;21055;-77
2021/06/05 11:20:10;;;;;;;2.98;1.67;;;;;;;24.67;34.42;100169.31;1741877;79;21429;-76
2021/06/05 11:22:54;;;;;;;3.70;1.30;;;;;;;25.17;33.96;100176.63;1711942;81;21004;-77
2021/06/05 11:25:41;;;;;;;9.15;1.70;;;;;;;25.49;31.94;100164.67;1705575;81;21100;-76
2021/06/05 11:28:34;;;;;;;6.03;1.37;;;;;;;25.59;32.54;100163.63;1769931;80;22517;-75
2021/06/05 11:31:23;;;;;;;4.95;1.50;;;;;;;25.86;31.69;100168.73;1750912;79;20992;-73
2021/06/05 11:33:49;;;;;;;4.78;1.37;;;;;;;25.78;31.29;100171.25;1724583;80;20988;-73
2021/06/05 11:36:41;;;;;;;3.05;1.60;;;;;;;25.55;32.09;100165.11;1727534;80;20977;-73
2021/06/05 11:39:22;;;;;;;3.27;1.20;;;;;;;25.50;32.42;100172.26;1726147;81;20943;-73
2021/06/05 11:41:53;;;;;;;5.15;1.65;;;;;;;25.45;31.96;100165.33;1727219;81;21852;-74
2021/06/05 11:44:38;;;;;;;4.15;1.95;;;;;;;25.63;31.56;100166.70;1741240;81;20928;-81
2021/06/05 11:47:22;;;;;;;3.20;1.62;;;;;;;25.91;30.61;100167.55;1769381;78;20988;-80